sensor_id;sensor_type;location;lat;lon;timestamp;P1;durP1;ratioP1;P2;durP2;ratioP2
57409;SDS011;46044;44.738;20.394;2022-11-23T00:06:37;5.10;;;2.25;;
57409;SDS011;46044;44.738;20.394;2022-11-23T00:12:09;6.32;;;2.38;;
57409;SDS011;46044;44.738;20.394;2022-11-23T00:17:13;3.00;;;2.10;;
57409;SDS011;46044;44.738;20.394;2022-11-23T00:19:46;5.32;;;2.20;;
57409;SDS011;46044;44.738;20.394;2022-11-23T00:22:19;3.70;;;2.10;;
57409;SDS011;46044;44.738;20.394;2022-11-23T00:24:52;6.20;;;2.90;;
57409;SDS011;46044;44.738;20.394;2022-11-23T00:27:26;7.60;;;2.90;;
57409;SDS011;46044;44.738;20.394;2022-11-23T00:29:59;6.05;;;2.35;;
57409;SDS011;46044;44.738;20.394;2022-11-23T00:32:34;4.30;;;2.65;;
57409;SDS011;46044;44.738;20.394;2022-11-23T00:35:07;4.95;;;2.80;;
57409;SDS011;46044;44.738;20.394;2022-11-23T00:40:13;6.25;;;2.80;;
57409;SDS011;46044;44.738;20.394;2022-11-23T00:42:48;4.32;;;3.00;;
57409;SDS011;46044;44.738;20.394;2022-11-23T00:45:18;5.65;;;3.13;;
57409;SDS011;46044;44.738;20.394;2022-11-23T00:47:53;5.65;;;3.00;;
57409;SDS011;46044;44.738;20.394;2022-11-23T00:50:27;4.18;;;2.60;;
57409;SDS011;46044;44.738;20.394;2022-11-23T00:52:57;5.60;;;3.13;;
57409;SDS011;46044;44.738;20.394;2022-11-23T00:55:24;8.18;;;2.90;;
57409;SDS011;46044;44.738;20.394;2022-11-23T00:57:59;5.97;;;3.60;;
57409;SDS011;46044;44.738;20.394;2022-11-23T01:00:30;5.40;;;3.47;;
57409;SDS011;46044;44.738;20.394;2022-11-23T01:06:08;5.55;;;3.60;;
57409;SDS011;46044;44.738;20.394;2022-11-23T01:08:41;5.55;;;3.55;;
57409;SDS011;46044;44.738;20.394;2022-11-23T01:11:17;7.13;;;3.53;;
57409;SDS011;46044;44.738;20.394;2022-11-23T01:13:50;5.85;;;3.60;;
57409;SDS011;46044;44.738;20.394;2022-11-23T01:16:25;6.22;;;3.63;;
57409;SDS011;46044;44.738;20.394;2022-11-23T01:19:00;6.82;;;3.78;;
57409;SDS011;46044;44.738;20.394;2022-11-23T01:21:35;5.63;;;3.70;;
57409;SDS011;46044;44.738;20.394;2022-11-23T01:24:13;7.37;;;3.80;;
57409;SDS011;46044;44.738;20.394;2022-11-23T01:26:51;9.93;;;4.18;;
57409;SDS011;46044;44.738;20.394;2022-11-23T01:29:27;7.00;;;4.22;;
57409;SDS011;46044;44.738;20.394;2022-11-23T01:32:05;6.90;;;3.75;;
57409;SDS011;46044;44.738;20.394;2022-11-23T01:34:38;9.53;;;4.70;;
57409;SDS011;46044;44.738;20.394;2022-11-23T01:37:15;9.75;;;4.60;;
57409;SDS011;46044;44.738;20.394;2022-11-23T01:39:49;8.20;;;3.90;;
57409;SDS011;46044;44.738;20.394;2022-11-23T01:42:36;6.15;;;4.13;;
57409;SDS011;46044;44.738;20.394;2022-11-23T01:48:02;8.53;;;4.40;;
57409;SDS011;46044;44.738;20.394;2022-11-23T01:50:37;7.90;;;4.75;;
57409;SDS011;46044;44.738;20.394;2022-11-23T01:53:14;5.90;;;4.20;;
57409;SDS011;46044;44.738;20.394;2022-11-23T01:55:47;7.97;;;5.00;;
57409;SDS011;46044;44.738;20.394;2022-11-23T02:01:20;8.30;;;4.20;;
57409;SDS011;46044;44.738;20.394;2022-11-23T02:03:58;6.90;;;4.40;;
57409;SDS011;46044;44.738;20.394;2022-11-23T02:06:33;8.95;;;5.13;;
57409;SDS011;46044;44.738;20.394;2022-11-23T02:09:07;8.35;;;4.90;;
57409;SDS011;46044;44.738;20.394;2022-11-23T02:11:43;7.67;;;5.43;;
57409;SDS011;46044;44.738;20.394;2022-11-23T02:14:21;7.10;;;4.43;;
57409;SDS011;46044;44.738;20.394;2022-11-23T02:16:58;10.05;;;4.90;;
57409;SDS011;46044;44.738;20.394;2022-11-23T02:22:28;7.83;;;5.07;;
57409;SDS011;46044;44.738;20.394;2022-11-23T02:28:02;7.13;;;4.72;;
57409;SDS011;46044;44.738;20.394;2022-11-23T02:30:35;9.00;;;4.38;;
57409;SDS011;46044;44.738;20.394;2022-11-23T02:33:10;10.10;;;4.90;;
57409;SDS011;46044;44.738;20.394;2022-11-23T02:35:54;9.20;;;5.15;;
57409;SDS011;46044;44.738;20.394;2022-11-23T02:38:31;6.32;;;4.50;;
57409;SDS011;46044;44.738;20.394;2022-11-23T02:41:09;8.32;;;4.55;;
57409;SDS011;46044;44.738;20.394;2022-11-23T02:43:45;8.20;;;4.93;;
57409;SDS011;46044;44.738;20.394;2022-11-23T02:46:19;7.95;;;4.82;;
57409;SDS011;46044;44.738;20.394;2022-11-23T02:48:59;9.47;;;5.37;;
57409;SDS011;46044;44.738;20.394;2022-11-23T02:51:32;8.88;;;5.07;;
57409;SDS011;46044;44.738;20.394;2022-11-23T02:54:09;9.80;;;5.60;;
57409;SDS011;46044;44.738;20.394;2022-11-23T02:59:44;8.70;;;5.65;;
57409;SDS011;46044;44.738;20.394;2022-11-23T03:04:49;9.30;;;5.35;;
57409;SDS011;46044;44.738;20.394;2022-11-23T03:07:25;8.45;;;5.45;;
57409;SDS011;46044;44.738;20.394;2022-11-23T03:12:33;8.43;;;5.35;;
57409;SDS011;46044;44.738;20.394;2022-11-23T03:15:07;10.50;;;6.30;;
57409;SDS011;46044;44.738;20.394;2022-11-23T03:17:41;10.75;;;5.78;;
57409;SDS011;46044;44.738;20.394;2022-11-23T03:20:17;10.18;;;6.07;;
57409;SDS011;46044;44.738;20.394;2022-11-23T03:22:54;11.50;;;5.60;;
57409;SDS011;46044;44.738;20.394;2022-11-23T03:25:28;10.10;;;5.32;;
57409;SDS011;46044;44.738;20.394;2022-11-23T03:28:03;8.48;;;5.00;;
57409;SDS011;46044;44.738;20.394;2022-11-23T03:30:41;10.35;;;5.30;;
57409;SDS011;46044;44.738;20.394;2022-11-23T03:33:14;8.70;;;5.60;;
57409;SDS011;46044;44.738;20.394;2022-11-23T03:35:47;7.93;;;5.37;;
57409;SDS011;46044;44.738;20.394;2022-11-23T03:38:28;13.00;;;5.95;;
57409;SDS011;46044;44.738;20.394;2022-11-23T03:41:04;9.35;;;5.55;;
57409;SDS011;46044;44.738;20.394;2022-11-23T03:43:54;8.97;;;4.97;;
57409;SDS011;46044;44.738;20.394;2022-11-23T03:46:29;12.98;;;5.45;;
57409;SDS011;46044;44.738;20.394;2022-11-23T03:49:04;11.43;;;5.55;;
57409;SDS011;46044;44.738;20.394;2022-11-23T03:51:41;9.82;;;5.40;;
57409;SDS011;46044;44.738;20.394;2022-11-23T03:54:17;10.85;;;5.88;;
57409;SDS011;46044;44.738;20.394;2022-11-23T03:56:53;7.43;;;4.85;;
57409;SDS011;46044;44.738;20.394;2022-11-23T03:59:26;10.20;;;6.20;;
57409;SDS011;46044;44.738;20.394;2022-11-23T04:01:56;9.43;;;5.57;;
57409;SDS011;46044;44.738;20.394;2022-11-23T04:04:33;8.37;;;4.93;;
57409;SDS011;46044;44.738;20.394;2022-11-23T04:07:31;10.65;;;4.93;;
57409;SDS011;46044;44.738;20.394;2022-11-23T04:10:09;10.55;;;5.25;;
57409;SDS011;46044;44.738;20.394;2022-11-23T04:13:15;10.02;;;6.35;;
57409;SDS011;46044;44.738;20.394;2022-11-23T04:15:48;9.68;;;5.90;;
57409;SDS011;46044;44.738;20.394;2022-11-23T04:18:23;10.07;;;5.28;;
57409;SDS011;46044;44.738;20.394;2022-11-23T04:23:57;8.40;;;5.30;;
57409;SDS011;46044;44.738;20.394;2022-11-23T04:26:31;8.63;;;5.30;;
57409;SDS011;46044;44.738;20.394;2022-11-23T04:29:07;10.45;;;5.50;;
57409;SDS011;46044;44.738;20.394;2022-11-23T04:31:46;9.27;;;5.30;;
57409;SDS011;46044;44.738;20.394;2022-11-23T04:34:23;8.90;;;5.53;;
57409;SDS011;46044;44.738;20.394;2022-11-23T04:36:58;9.65;;;5.30;;
57409;SDS011;46044;44.738;20.394;2022-11-23T04:39:40;11.75;;;5.75;;
57409;SDS011;46044;44.738;20.394;2022-11-23T04:42:25;7.78;;;5.20;;
57409;SDS011;46044;44.738;20.394;2022-11-23T04:45:02;9.50;;;5.22;;
57409;SDS011;46044;44.738;20.394;2022-11-23T04:47:38;9.43;;;5.35;;
57409;SDS011;46044;44.738;20.394;2022-11-23T04:50:17;10.57;;;5.32;;
57409;SDS011;46044;44.738;20.394;2022-11-23T04:52:56;9.73;;;5.40;;
57409;SDS011;46044;44.738;20.394;2022-11-23T04:55:37;7.20;;;4.50;;
57409;SDS011;46044;44.738;20.394;2022-11-23T04:58:11;12.55;;;6.60;;
57409;SDS011;46044;44.738;20.394;2022-11-23T05:00:46;8.82;;;5.05;;
57409;SDS011;46044;44.738;20.394;2022-11-23T05:03:20;11.90;;;6.10;;
57409;SDS011;46044;44.738;20.394;2022-11-23T05:05:57;8.00;;;5.10;;
57409;SDS011;46044;44.738;20.394;2022-11-23T05:08:35;8.52;;;5.03;;
57409;SDS011;46044;44.738;20.394;2022-11-23T05:11:25;7.30;;;5.10;;
57409;SDS011;46044;44.738;20.394;2022-11-23T05:14:00;8.95;;;5.60;;
57409;SDS011;46044;44.738;20.394;2022-11-23T05:16:36;9.15;;;5.70;;
57409;SDS011;46044;44.738;20.394;2022-11-23T05:22:11;12.68;;;6.50;;
57409;SDS011;46044;44.738;20.394;2022-11-23T05:24:46;11.20;;;6.05;;
57409;SDS011;46044;44.738;20.394;2022-11-23T05:27:23;10.77;;;5.88;;
57409;SDS011;46044;44.738;20.394;2022-11-23T05:29:56;10.50;;;5.97;;
57409;SDS011;46044;44.738;20.394;2022-11-23T05:32:31;13.07;;;6.30;;
57409;SDS011;46044;44.738;20.394;2022-11-23T05:35:05;9.77;;;5.90;;
57409;SDS011;46044;44.738;20.394;2022-11-23T05:37:41;11.57;;;6.20;;
57409;SDS011;46044;44.738;20.394;2022-11-23T05:40:17;10.00;;;6.20;;
57409;SDS011;46044;44.738;20.394;2022-11-23T05:42:56;9.38;;;5.28;;
57409;SDS011;46044;44.738;20.394;2022-11-23T05:45:29;10.07;;;5.93;;
57409;SDS011;46044;44.738;20.394;2022-11-23T05:48:03;13.00;;;6.20;;
57409;SDS011;46044;44.738;20.394;2022-11-23T05:50:49;11.53;;;6.30;;
57409;SDS011;46044;44.738;20.394;2022-11-23T05:53:36;10.45;;;5.47;;
57409;SDS011;46044;44.738;20.394;2022-11-23T05:56:15;8.38;;;5.65;;
57409;SDS011;46044;44.738;20.394;2022-11-23T05:59:06;10.25;;;5.85;;
57409;SDS011;46044;44.738;20.394;2022-11-23T06:01:41;11.93;;;6.03;;
57409;SDS011;46044;44.738;20.394;2022-11-23T06:04:18;12.55;;;6.10;;
57409;SDS011;46044;44.738;20.394;2022-11-23T06:06:51;10.05;;;5.70;;
57409;SDS011;46044;44.738;20.394;2022-11-23T06:09:26;11.45;;;5.55;;
57409;SDS011;46044;44.738;20.394;2022-11-23T06:11:59;9.35;;;5.57;;
57409;SDS011;46044;44.738;20.394;2022-11-23T06:14:32;11.85;;;5.85;;
57409;SDS011;46044;44.738;20.394;2022-11-23T06:17:06;10.43;;;5.50;;
57409;SDS011;46044;44.738;20.394;2022-11-23T06:19:49;11.50;;;5.85;;
57409;SDS011;46044;44.738;20.394;2022-11-23T06:22:22;12.23;;;5.82;;
57409;SDS011;46044;44.738;20.394;2022-11-23T06:25:08;10.32;;;5.78;;
57409;SDS011;46044;44.738;20.394;2022-11-23T06:27:55;9.63;;;6.35;;
57409;SDS011;46044;44.738;20.394;2022-11-23T06:30:34;11.85;;;6.10;;
57409;SDS011;46044;44.738;20.394;2022-11-23T06:33:12;9.80;;;6.07;;
57409;SDS011;46044;44.738;20.394;2022-11-23T06:35:57;8.95;;;5.38;;
57409;SDS011;46044;44.738;20.394;2022-11-23T06:38:43;9.80;;;5.77;;
57409;SDS011;46044;44.738;20.394;2022-11-23T06:41:23;10.55;;;5.95;;
57409;SDS011;46044;44.738;20.394;2022-11-23T06:43:57;9.70;;;5.65;;
57409;SDS011;46044;44.738;20.394;2022-11-23T06:46:44;10.15;;;5.53;;
57409;SDS011;46044;44.738;20.394;2022-11-23T06:49:18;15.00;;;5.93;;
57409;SDS011;46044;44.738;20.394;2022-11-23T06:52:06;12.10;;;6.32;;
57409;SDS011;46044;44.738;20.394;2022-11-23T06:57:13;10.65;;;6.13;;
57409;SDS011;46044;44.738;20.394;2022-11-23T06:59:51;11.65;;;6.50;;
57409;SDS011;46044;44.738;20.394;2022-11-23T07:02:30;11.60;;;6.45;;
57409;SDS011;46044;44.738;20.394;2022-11-23T07:05:04;13.02;;;6.85;;
57409;SDS011;46044;44.738;20.394;2022-11-23T07:07:44;11.85;;;6.38;;
57409;SDS011;46044;44.738;20.394;2022-11-23T07:10:24;12.73;;;6.63;;
57409;SDS011;46044;44.738;20.394;2022-11-23T07:13:05;13.60;;;7.25;;
57409;SDS011;46044;44.738;20.394;2022-11-23T07:15:41;13.38;;;7.25;;
57409;SDS011;46044;44.738;20.394;2022-11-23T07:18:16;13.90;;;7.10;;
57409;SDS011;46044;44.738;20.394;2022-11-23T07:21:00;11.70;;;7.05;;
57409;SDS011;46044;44.738;20.394;2022-11-23T07:23:36;11.60;;;6.70;;
57409;SDS011;46044;44.738;20.394;2022-11-23T07:26:11;10.73;;;6.60;;
57409;SDS011;46044;44.738;20.394;2022-11-23T07:28:44;12.52;;;6.97;;
57409;SDS011;46044;44.738;20.394;2022-11-23T07:31:17;13.73;;;6.20;;
57409;SDS011;46044;44.738;20.394;2022-11-23T07:33:50;12.80;;;6.22;;
57409;SDS011;46044;44.738;20.394;2022-11-23T07:36:24;10.80;;;5.93;;
57409;SDS011;46044;44.738;20.394;2022-11-23T07:41:33;9.90;;;5.65;;
57409;SDS011;46044;44.738;20.394;2022-11-23T07:44:29;11.27;;;6.20;;
57409;SDS011;46044;44.738;20.394;2022-11-23T07:47:02;14.82;;;6.00;;
57409;SDS011;46044;44.738;20.394;2022-11-23T07:49:35;10.45;;;5.55;;
57409;SDS011;46044;44.738;20.394;2022-11-23T07:52:08;8.80;;;5.23;;
57409;SDS011;46044;44.738;20.394;2022-11-23T07:54:44;10.77;;;5.68;;
57409;SDS011;46044;44.738;20.394;2022-11-23T07:57:17;8.90;;;5.25;;
57409;SDS011;46044;44.738;20.394;2022-11-23T07:59:47;11.30;;;5.50;;
57409;SDS011;46044;44.738;20.394;2022-11-23T08:02:26;12.98;;;5.82;;
57409;SDS011;46044;44.738;20.394;2022-11-23T08:04:59;10.77;;;5.13;;
57409;SDS011;46044;44.738;20.394;2022-11-23T08:07:34;8.82;;;5.05;;
57409;SDS011;46044;44.738;20.394;2022-11-23T08:10:07;8.00;;;4.57;;
57409;SDS011;46044;44.738;20.394;2022-11-23T08:12:42;9.70;;;4.90;;
57409;SDS011;46044;44.738;20.394;2022-11-23T08:17:49;10.32;;;5.65;;
57409;SDS011;46044;44.738;20.394;2022-11-23T08:20:27;10.90;;;6.25;;
57409;SDS011;46044;44.738;20.394;2022-11-23T08:22:59;11.40;;;5.78;;
57409;SDS011;46044;44.738;20.394;2022-11-23T08:25:32;10.47;;;5.83;;
57409;SDS011;46044;44.738;20.394;2022-11-23T08:28:05;14.23;;;7.27;;
57409;SDS011;46044;44.738;20.394;2022-11-23T08:30:38;13.13;;;6.47;;
57409;SDS011;46044;44.738;20.394;2022-11-23T08:33:12;12.35;;;7.60;;
57409;SDS011;46044;44.738;20.394;2022-11-23T08:35:45;12.50;;;6.68;;
57409;SDS011;46044;44.738;20.394;2022-11-23T08:38:22;9.63;;;3.83;;
57409;SDS011;46044;44.738;20.394;2022-11-23T08:40:57;6.10;;;3.00;;
57409;SDS011;46044;44.738;20.394;2022-11-23T08:43:32;10.77;;;2.45;;
57409;SDS011;46044;44.738;20.394;2022-11-23T08:51:50;7.90;;;4.35;;
57409;SDS011;46044;44.738;20.394;2022-11-23T08:54:27;10.70;;;5.22;;
57409;SDS011;46044;44.738;20.394;2022-11-23T08:59:51;10.98;;;4.65;;
57409;SDS011;46044;44.738;20.394;2022-11-23T09:02:26;14.15;;;6.95;;
57409;SDS011;46044;44.738;20.394;2022-11-23T09:08:00;12.30;;;6.95;;
57409;SDS011;46044;44.738;20.394;2022-11-23T09:25:45;23.13;;;12.73;;
57409;SDS011;46044;44.738;20.394;2022-11-23T09:43:07;28.65;;;16.88;;
57409;SDS011;46044;44.738;20.394;2022-11-23T10:17:46;62.10;;;34.22;;
57409;SDS011;46044;44.738;20.394;2022-11-23T10:26:45;211.23;;;121.78;;
57409;SDS011;46044;44.738;20.394;2022-11-23T10:32:31;213.30;;;125.90;;
57409;SDS011;46044;44.738;20.394;2022-11-23T10:38:17;189.32;;;127.53;;
57409;SDS011;46044;44.738;20.394;2022-11-23T10:43:37;77.55;;;50.40;;
57409;SDS011;46044;44.738;20.394;2022-11-23T10:49:18;88.38;;;64.78;;
57409;SDS011;46044;44.738;20.394;2022-11-23T10:52:04;51.80;;;30.05;;
57409;SDS011;46044;44.738;20.394;2022-11-23T10:54:38;48.00;;;31.70;;
57409;SDS011;46044;44.738;20.394;2022-11-23T10:57:33;43.03;;;26.90;;
57409;SDS011;46044;44.738;20.394;2022-11-23T11:09:00;49.50;;;31.95;;
57409;SDS011;46044;44.738;20.394;2022-11-23T11:11:38;42.45;;;26.10;;
57409;SDS011;46044;44.738;20.394;2022-11-23T11:19:46;54.00;;;31.35;;
57409;SDS011;46044;44.738;20.394;2022-11-23T11:22:37;44.47;;;29.42;;
57409;SDS011;46044;44.738;20.394;2022-11-23T11:25:36;58.17;;;36.58;;
57409;SDS011;46044;44.738;20.394;2022-11-23T11:31:26;69.65;;;45.20;;
57409;SDS011;46044;44.738;20.394;2022-11-23T11:39:50;40.45;;;27.80;;
57409;SDS011;46044;44.738;20.394;2022-11-23T11:42:42;39.53;;;27.27;;
57409;SDS011;46044;44.738;20.394;2022-11-23T11:50:32;42.47;;;26.70;;
57409;SDS011;46044;44.738;20.394;2022-11-23T11:53:14;35.95;;;25.58;;
57409;SDS011;46044;44.738;20.394;2022-11-23T11:59:02;108.80;;;64.15;;
57409;SDS011;46044;44.738;20.394;2022-11-23T12:01:47;89.22;;;52.17;;
57409;SDS011;46044;44.738;20.394;2022-11-23T12:04:39;108.13;;;58.92;;
57409;SDS011;46044;44.738;20.394;2022-11-23T12:13:18;46.40;;;31.73;;
57409;SDS011;46044;44.738;20.394;2022-11-23T12:35:51;43.55;;;31.38;;
57409;SDS011;46044;44.738;20.394;2022-11-23T12:38:39;79.72;;;50.17;;
57409;SDS011;46044;44.738;20.394;2022-11-23T12:41:21;83.43;;;50.72;;
57409;SDS011;46044;44.738;20.394;2022-11-23T12:44:24;49.33;;;34.33;;
57409;SDS011;46044;44.738;20.394;2022-11-23T12:49:44;56.20;;;39.13;;
57409;SDS011;46044;44.738;20.394;2022-11-23T13:00:20;41.00;;;30.00;;
57409;SDS011;46044;44.738;20.394;2022-11-23T13:11:10;17.25;;;12.80;;
57409;SDS011;46044;44.738;20.394;2022-11-23T13:22:04;13.95;;;9.75;;
57409;SDS011;46044;44.738;20.394;2022-11-23T13:24:38;16.77;;;11.80;;
57409;SDS011;46044;44.738;20.394;2022-11-23T13:29:53;9.05;;;7.15;;
57409;SDS011;46044;44.738;20.394;2022-11-23T13:32:34;8.00;;;5.88;;
57409;SDS011;46044;44.738;20.394;2022-11-23T13:40:36;9.23;;;7.13;;
57409;SDS011;46044;44.738;20.394;2022-11-23T13:45:42;19.57;;;14.20;;
57409;SDS011;46044;44.738;20.394;2022-11-23T13:51:06;15.15;;;10.05;;
57409;SDS011;46044;44.738;20.394;2022-11-23T13:53:41;15.20;;;10.40;;
57409;SDS011;46044;44.738;20.394;2022-11-23T13:56:21;20.60;;;11.90;;
57409;SDS011;46044;44.738;20.394;2022-11-23T14:11:08;12.95;;;7.93;;
57409;SDS011;46044;44.738;20.394;2022-11-23T14:37:26;10.50;;;7.07;;
57409;SDS011;46044;44.738;20.394;2022-11-23T14:40:05;11.02;;;8.15;;
57409;SDS011;46044;44.738;20.394;2022-11-23T14:45:45;12.37;;;7.60;;
57409;SDS011;46044;44.738;20.394;2022-11-23T14:51:23;19.35;;;9.30;;
57409;SDS011;46044;44.738;20.394;2022-11-23T14:53:58;7.80;;;4.70;;
57409;SDS011;46044;44.738;20.394;2022-11-23T14:56:36;24.10;;;11.00;;
57409;SDS011;46044;44.738;20.394;2022-11-23T15:08:08;18.88;;;9.82;;
57409;SDS011;46044;44.738;20.394;2022-11-23T15:16:39;28.92;;;18.48;;
57409;SDS011;46044;44.738;20.394;2022-11-23T15:19:17;13.57;;;9.10;;
57409;SDS011;46044;44.738;20.394;2022-11-23T15:24:50;11.68;;;6.65;;
57409;SDS011;46044;44.738;20.394;2022-11-23T15:27:25;14.70;;;5.13;;
57409;SDS011;46044;44.738;20.394;2022-11-23T15:30:01;11.75;;;6.45;;
57409;SDS011;46044;44.738;20.394;2022-11-23T15:32:36;9.80;;;4.90;;
57409;SDS011;46044;44.738;20.394;2022-11-23T15:35:10;12.50;;;5.63;;
57409;SDS011;46044;44.738;20.394;2022-11-23T15:37:45;10.65;;;4.03;;
57409;SDS011;46044;44.738;20.394;2022-11-23T15:46:20;7.15;;;3.70;;
57409;SDS011;46044;44.738;20.394;2022-11-23T15:48:57;5.97;;;3.80;;
57409;SDS011;46044;44.738;20.394;2022-11-23T15:54:17;8.00;;;3.85;;
57409;SDS011;46044;44.738;20.394;2022-11-23T15:56:54;5.28;;;3.80;;
57409;SDS011;46044;44.738;20.394;2022-11-23T16:02:21;7.43;;;3.77;;
57409;SDS011;46044;44.738;20.394;2022-11-23T16:10:51;5.10;;;3.70;;
57409;SDS011;46044;44.738;20.394;2022-11-23T16:13:35;5.60;;;4.10;;
57409;SDS011;46044;44.738;20.394;2022-11-23T16:16:19;12.40;;;6.55;;
57409;SDS011;46044;44.738;20.394;2022-11-23T16:21:27;25.17;;;12.55;;
57409;SDS011;46044;44.738;20.394;2022-11-23T16:24:01;22.98;;;13.10;;
57409;SDS011;46044;44.738;20.394;2022-11-23T16:29:35;23.50;;;16.60;;
57409;SDS011;46044;44.738;20.394;2022-11-23T16:38:03;14.57;;;10.35;;
57409;SDS011;46044;44.738;20.394;2022-11-23T16:43:22;19.98;;;14.93;;
57409;SDS011;46044;44.738;20.394;2022-11-23T16:45:56;25.17;;;16.38;;
57409;SDS011;46044;44.738;20.394;2022-11-23T16:51:14;19.00;;;13.13;;
57409;SDS011;46044;44.738;20.394;2022-11-23T16:53:48;20.35;;;14.20;;
57409;SDS011;46044;44.738;20.394;2022-11-23T16:56:22;12.45;;;8.20;;
57409;SDS011;46044;44.738;20.394;2022-11-23T16:58:59;10.93;;;7.43;;
57409;SDS011;46044;44.738;20.394;2022-11-23T17:01:33;13.13;;;9.57;;
57409;SDS011;46044;44.738;20.394;2022-11-23T17:04:13;7.20;;;5.65;;
57409;SDS011;46044;44.738;20.394;2022-11-23T17:06:46;7.25;;;5.60;;
57409;SDS011;46044;44.738;20.394;2022-11-23T17:09:23;10.88;;;7.22;;
57409;SDS011;46044;44.738;20.394;2022-11-23T17:11:56;7.38;;;5.40;;
57409;SDS011;46044;44.738;20.394;2022-11-23T17:14:30;14.40;;;6.57;;
57409;SDS011;46044;44.738;20.394;2022-11-23T17:17:10;9.38;;;6.50;;
57409;SDS011;46044;44.738;20.394;2022-11-23T17:19:48;10.35;;;6.82;;
57409;SDS011;46044;44.738;20.394;2022-11-23T17:22:21;11.50;;;6.45;;
57409;SDS011;46044;44.738;20.394;2022-11-23T17:24:56;9.23;;;6.60;;
57409;SDS011;46044;44.738;20.394;2022-11-23T17:30:18;11.20;;;6.65;;
57409;SDS011;46044;44.738;20.394;2022-11-23T17:38:35;8.15;;;6.03;;
57409;SDS011;46044;44.738;20.394;2022-11-23T17:41:14;13.10;;;5.70;;
57409;SDS011;46044;44.738;20.394;2022-11-23T17:43:46;11.10;;;6.88;;
57409;SDS011;46044;44.738;20.394;2022-11-23T17:46:20;11.80;;;6.80;;
57409;SDS011;46044;44.738;20.394;2022-11-23T17:48:57;26.67;;;15.73;;
57409;SDS011;46044;44.738;20.394;2022-11-23T17:51:30;20.83;;;12.00;;
57409;SDS011;46044;44.738;20.394;2022-11-23T17:54:03;16.70;;;8.90;;
57409;SDS011;46044;44.738;20.394;2022-11-23T17:56:38;11.77;;;8.45;;
57409;SDS011;46044;44.738;20.394;2022-11-23T17:59:11;9.15;;;6.30;;
57409;SDS011;46044;44.738;20.394;2022-11-23T18:01:48;8.80;;;5.30;;
57409;SDS011;46044;44.738;20.394;2022-11-23T18:04:21;14.43;;;9.80;;
57409;SDS011;46044;44.738;20.394;2022-11-23T18:06:55;9.03;;;5.93;;
57409;SDS011;46044;44.738;20.394;2022-11-23T18:09:31;9.52;;;6.03;;
57409;SDS011;46044;44.738;20.394;2022-11-23T18:12:08;8.30;;;5.25;;
57409;SDS011;46044;44.738;20.394;2022-11-23T18:17:31;8.32;;;5.95;;
57409;SDS011;46044;44.738;20.394;2022-11-23T18:20:04;9.73;;;5.55;;
57409;SDS011;46044;44.738;20.394;2022-11-23T18:22:42;10.80;;;4.85;;
57409;SDS011;46044;44.738;20.394;2022-11-23T18:25:15;8.93;;;4.50;;
57409;SDS011;46044;44.738;20.394;2022-11-23T18:27:48;9.60;;;5.50;;
57409;SDS011;46044;44.738;20.394;2022-11-23T18:30:24;9.88;;;6.60;;
57409;SDS011;46044;44.738;20.394;2022-11-23T18:32:57;14.65;;;10.88;;
57409;SDS011;46044;44.738;20.394;2022-11-23T18:35:30;11.73;;;8.13;;
57409;SDS011;46044;44.738;20.394;2022-11-23T18:38:04;15.87;;;8.60;;
57409;SDS011;46044;44.738;20.394;2022-11-23T18:40:37;10.75;;;6.55;;
57409;SDS011;46044;44.738;20.394;2022-11-23T18:43:14;11.85;;;7.25;;
57409;SDS011;46044;44.738;20.394;2022-11-23T18:45:47;6.40;;;4.47;;
57409;SDS011;46044;44.738;20.394;2022-11-23T18:48:22;8.10;;;5.00;;
57409;SDS011;46044;44.738;20.394;2022-11-23T18:50:55;6.90;;;4.80;;
57409;SDS011;46044;44.738;20.394;2022-11-23T18:53:29;7.97;;;5.00;;
57409;SDS011;46044;44.738;20.394;2022-11-23T18:58:50;9.00;;;5.37;;
57409;SDS011;46044;44.738;20.394;2022-11-23T19:01:23;6.93;;;4.63;;
57409;SDS011;46044;44.738;20.394;2022-11-23T19:03:54;7.30;;;5.03;;
57409;SDS011;46044;44.738;20.394;2022-11-23T19:06:27;6.30;;;4.90;;
57409;SDS011;46044;44.738;20.394;2022-11-23T19:09:02;7.78;;;5.75;;
57409;SDS011;46044;44.738;20.394;2022-11-23T19:11:34;12.05;;;5.90;;
57409;SDS011;46044;44.738;20.394;2022-11-23T19:14:07;12.77;;;6.37;;
57409;SDS011;46044;44.738;20.394;2022-11-23T19:16:44;11.30;;;6.93;;
57409;SDS011;46044;44.738;20.394;2022-11-23T19:19:17;14.02;;;7.22;;
57409;SDS011;46044;44.738;20.394;2022-11-23T19:21:51;13.60;;;7.25;;
57409;SDS011;46044;44.738;20.394;2022-11-23T19:24:27;12.52;;;7.35;;
57409;SDS011;46044;44.738;20.394;2022-11-23T19:27:00;14.65;;;7.60;;
57409;SDS011;46044;44.738;20.394;2022-11-23T19:29:33;14.57;;;8.15;;
57409;SDS011;46044;44.738;20.394;2022-11-23T19:32:06;14.80;;;8.90;;
57409;SDS011;46044;44.738;20.394;2022-11-23T19:34:39;14.40;;;8.18;;
57409;SDS011;46044;44.738;20.394;2022-11-23T19:40:00;14.20;;;8.70;;
57409;SDS011;46044;44.738;20.394;2022-11-23T19:42:34;12.20;;;8.25;;
57409;SDS011;46044;44.738;20.394;2022-11-23T19:45:06;17.05;;;9.98;;
57409;SDS011;46044;44.738;20.394;2022-11-23T19:47:39;12.15;;;8.77;;
57409;SDS011;46044;44.738;20.394;2022-11-23T19:50:12;11.98;;;7.88;;
57409;SDS011;46044;44.738;20.394;2022-11-23T19:52:45;16.27;;;8.93;;
57409;SDS011;46044;44.738;20.394;2022-11-23T19:58:52;17.00;;;9.70;;
57409;SDS011;46044;44.738;20.394;2022-11-23T20:01:28;14.80;;;9.00;;
57409;SDS011;46044;44.738;20.394;2022-11-23T20:07:14;14.95;;;10.10;;
57409;SDS011;46044;44.738;20.394;2022-11-23T20:12:35;13.75;;;9.85;;
57409;SDS011;46044;44.738;20.394;2022-11-23T20:15:08;17.38;;;10.27;;
57409;SDS011;46044;44.738;20.394;2022-11-23T20:23:53;18.90;;;10.95;;
57409;SDS011;46044;44.738;20.394;2022-11-23T20:29:25;26.40;;;15.80;;
57409;SDS011;46044;44.738;20.394;2022-11-23T20:34:44;25.40;;;16.70;;
57409;SDS011;46044;44.738;20.394;2022-11-23T20:43:01;22.60;;;13.40;;
57409;SDS011;46044;44.738;20.394;2022-11-23T20:45:37;23.88;;;13.93;;
57409;SDS011;46044;44.738;20.394;2022-11-23T20:48:10;26.40;;;15.48;;
57409;SDS011;46044;44.738;20.394;2022-11-23T20:50:43;23.00;;;14.50;;
57409;SDS011;46044;44.738;20.394;2022-11-23T20:53:20;23.05;;;14.30;;
57409;SDS011;46044;44.738;20.394;2022-11-23T20:58:39;31.42;;;18.00;;
57409;SDS011;46044;44.738;20.394;2022-11-23T21:01:16;29.75;;;19.55;;
57409;SDS011;46044;44.738;20.394;2022-11-23T21:03:56;29.67;;;19.00;;
57409;SDS011;46044;44.738;20.394;2022-11-23T21:06:29;28.00;;;16.87;;
57409;SDS011;46044;44.738;20.394;2022-11-23T21:09:02;30.02;;;17.38;;
57409;SDS011;46044;44.738;20.394;2022-11-23T21:14:23;36.90;;;20.75;;
57409;SDS011;46044;44.738;20.394;2022-11-23T21:16:59;39.15;;;20.60;;
57409;SDS011;46044;44.738;20.394;2022-11-23T21:25:20;43.75;;;24.92;;
57409;SDS011;46044;44.738;20.394;2022-11-23T21:27:47;36.90;;;20.65;;
57409;SDS011;46044;44.738;20.394;2022-11-23T21:30:14;26.98;;;17.92;;
57409;SDS011;46044;44.738;20.394;2022-11-23T21:32:43;31.95;;;17.80;;
57409;SDS011;46044;44.738;20.394;2022-11-23T21:35:12;31.67;;;19.27;;
57409;SDS011;46044;44.738;20.394;2022-11-23T21:37:42;27.40;;;15.68;;
57409;SDS011;46044;44.738;20.394;2022-11-23T21:40:09;34.03;;;17.95;;
57409;SDS011;46044;44.738;20.394;2022-11-23T21:42:36;25.73;;;15.80;;
57409;SDS011;46044;44.738;20.394;2022-11-23T21:45:03;28.67;;;18.40;;